Mason City Municipal Airport
KMCW : now visible

Airfield :











YOU CAN JOIN US ON...

 
LOGIN :

Register | Disclaimer

   EN    FR    IT 

 









Legend :    VFR   Marginal VFR   IFR   Intensive IFR   Very Intensive IFR
Visi :
Ceiling :
>= 8 km
>= 3000ft
5 to 8 km
1000 to 3000 ft
1500m to 5 km
500 to 1000 ft
800 to 1500m
200 to 500 ft
< 800m
< 200 ft
Symbols :   Thunderstorms  Fog  Heavy snow  Heavy precipitations  Wind > 20 kt






- Airport Elevation : 1213 ft


KMCW - Mason City Municipal

CURRENT METAR :
  • 170153Z AUTO 20008KT 10SM BKN045 OVC060 28/22 A2975 RMK AO2 SLP060 T02780222

EXPIRED METARs :
  • 170053Z AUTO 20010KT 10SM BKN048 29/22 A2973 RMK AO2 SLP054 T02890222
  • 162353Z AUTO 21013G23KT 10SM FEW044 30/22 A2971 RMK AO2 PK WND 20027/2322 SLP046 T03000217 10311 20289 53003
  • 162253Z AUTO 20016G26KT 10SM CLR 31/22 A2969 RMK AO2 PK WND 20028/2215 SLP039 T03110222
  • 162153Z AUTO 20018G26KT 10SM CLR 31/22 A2969 RMK AO2 PK WND 21026/2140 SLP039 T03110217

TAF KMCW
Valid from the 17 at 00:00 until the 18 at 00:00 UTC


162320Z 1700/1724 20014G21KT P6SM FEW045
FM170100 18010G16KT P6SM SCT045
FM170400 17008KT P6SM VCTS SCT040CB
FM171400 17011G17KT P6SM BKN030
FM171700 18015G22KT P6SM BKN040
KZMP FIR / North America



MET'MAP, your aeronautical weather chart ! - Copyright ORBIFLY December 2007 - Disclaimer

ORBIFLY MET'MAP TEAM :

Programming & Development : Alexandra Zaïnal
Original concept : Baudouin d'Aumeries
Technical & hardware support : Manuel Goepfert
Assistance : Marc-Olivier Méhu




SOURCES & CREDITS :

   NOAA       Earth
Advisory